Time;durP1;ratioP1;P1;durP2;ratioP2;P2;SDS_P1;SDS_P2;PMS_P1;PMS_P2;Temp;Humidity;BMP_temperature;BMP_pressure;BME280_temperature;BME280_humidity;BME280_pressure;Samples;Min_cycle;Max_cycle;Signal;HPM_P1;HPM_P2
2023/07/23 00:02:26;;;;;;;6.10;4.75;;;;;;;-141.84;59.16;21116.78;5027909;28;20257;-67
2023/07/23 00:04:55;;;;;;;4.70;4.30;;;;;;;-141.84;59.66;21116.78;5044468;28;20229;-67
2023/07/23 00:07:25;;;;;;;4.90;4.40;;;;;;;-141.84;60.49;21072.06;5041475;28;20221;-68
2023/07/23 00:09:53;;;;;;;6.20;4.28;;;;;;;-141.84;60.35;21078.16;5044551;28;20255;-66
2023/07/23 00:12:22;;;;;;;8.23;4.65;;;;;;;-141.84;59.88;21090.38;5044109;28;20224;-66
2023/07/23 00:14:51;;;;;;;6.97;4.35;;;;;;;-141.84;59.69;21098.50;5040999;28;20221;-67
2023/07/23 00:17:19;;;;;;;5.28;4.78;;;;;;;-141.84;59.76;21082.25;5037730;28;20320;-66
2023/07/23 00:19:48;;;;;;;6.10;4.13;;;;;;;-141.84;59.77;21155.44;5043831;28;20335;-67
2023/07/23 00:22:16;;;;;;;4.80;4.07;;;;;;;-141.84;59.86;21129.00;5043976;28;20308;-66
2023/07/23 00:24:46;;;;;;;7.20;4.50;;;;;;;-141.84;59.50;21161.53;5035995;28;20576;-66
2023/07/23 00:27:15;;;;;;;5.20;4.40;;;;;;;-141.84;58.61;21196.09;5044076;28;20240;-66
2023/07/23 00:29:44;;;;;;;4.63;4.22;;;;;;;-141.84;59.32;21133.06;5044773;28;20197;-68
2023/07/23 00:32:12;;;;;;;4.40;4.03;;;;;;;-141.84;59.08;21190.00;5044008;28;20225;-67
2023/07/23 00:34:41;;;;;;;5.00;4.50;;;;;;;-141.84;59.24;21179.81;5035340;28;20232;-67
2023/07/23 00:37:10;;;;;;;6.47;4.50;;;;;;;-141.84;59.15;21185.91;5039853;28;20618;-66
2023/07/23 00:39:39;;;;;;;5.53;4.57;;;;;;;-141.84;59.51;21173.72;5023554;28;20254;-65
2023/07/23 00:42:09;;;;;;;4.60;4.20;;;;;;;-141.84;59.01;21163.56;5038081;28;20236;-66
2023/07/23 00:44:38;;;;;;;4.65;4.15;;;;;;;-141.84;58.96;21179.81;5036795;28;20229;-66
2023/07/23 00:47:07;;;;;;;5.13;4.63;;;;;;;-141.84;59.19;21210.31;5043491;28;20225;-68
2023/07/23 00:49:35;;;;;;;5.65;4.65;;;;;;;-141.84;59.19;21167.63;5043296;28;20320;-67
2023/07/23 00:52:06;;;;;;;4.60;4.20;;;;;;;-141.84;60.03;21151.34;5043211;28;20648;-67
2023/07/23 00:54:35;;;;;;;4.70;4.20;;;;;;;-141.84;58.92;21196.09;5035925;28;20279;-67
2023/07/23 00:57:07;;;;;;;4.57;3.97;;;;;;;-141.84;58.96;21173.72;5043969;28;20210;-66
2023/07/23 00:59:38;;;;;;;5.50;4.03;;;;;;;-141.84;58.62;21208.28;5043941;28;20259;-67
2023/07/23 01:02:07;;;;;;;5.00;4.40;;;;;;;-141.84;58.15;21220.47;5042977;28;20252;-67
2023/07/23 01:04:36;;;;;;;5.70;3.97;;;;;;;-141.84;58.47;21198.13;5035320;28;20229;-67
2023/07/23 01:07:08;;;;;;;4.78;4.25;;;;;;;-141.84;58.66;21173.72;5043241;28;20363;-65
2023/07/23 01:09:37;;;;;;;5.10;4.60;;;;;;;-141.84;59.22;21192.03;5043299;28;20225;-66
2023/07/23 01:12:07;;;;;;;5.10;4.25;;;;;;;-141.84;59.19;21133.06;5043390;28;20308;-67
2023/07/23 01:14:37;;;;;;;4.90;4.38;;;;;;;-141.84;59.46;21155.44;5035250;28;20244;-67
2023/07/23 01:17:07;;;;;;;4.53;4.13;;;;;;;-141.84;59.88;21135.09;5042124;28;20237;-68
2023/07/23 01:19:38;;;;;;;4.43;3.70;;;;;;;-141.84;59.96;21141.19;5043134;28;20324;-68
2023/07/23 01:22:08;;;;;;;5.78;4.38;;;;;;;-141.84;58.93;21218.44;5042725;28;20308;-66
2023/07/23 01:24:37;;;;;;;4.90;3.83;;;;;;;-141.84;57.83;21242.84;5035281;28;20278;-66
2023/07/23 01:27:06;;;;;;;4.57;3.83;;;;;;;-141.84;58.58;21185.91;5043397;28;20255;-67
2023/07/23 01:29:35;;;;;;;5.90;3.72;;;;;;;-141.84;59.20;21163.56;5043601;28;20229;-66
2023/07/23 01:32:04;;;;;;;4.20;3.80;;;;;;;-141.84;59.57;21143.22;5042227;28;20229;-66
2023/07/23 01:34:32;;;;;;;4.38;3.97;;;;;;;-141.84;58.87;21157.47;5020653;28;20832;-66
2023/07/23 01:37:02;;;;;;;4.15;3.75;;;;;;;-141.84;59.37;21139.16;5024738;28;20635;-67
2023/07/23 01:39:34;;;;;;;4.55;3.85;;;;;;;-141.84;58.20;21194.06;5042866;28;20233;-67
2023/07/23 01:42:04;;;;;;;4.35;3.70;;;;;;;-141.84;59.57;21098.50;5043292;28;20704;-66
2023/07/23 01:44:33;;;;;;;4.80;3.80;;;;;;;-141.84;59.89;21139.16;5034834;28;20317;-67
2023/07/23 01:47:01;;;;;;;4.07;3.67;;;;;;;-141.84;60.13;21126.97;5042493;28;20296;-68
2023/07/23 01:49:30;;;;;;;5.60;4.28;;;;;;;-141.84;60.07;21120.88;5042234;28;20605;-67
2023/07/23 01:51:58;;;;;;;4.43;4.03;;;;;;;-141.84;59.75;21139.16;5042459;28;20229;-67
2023/07/23 01:54:27;;;;;;;5.63;4.20;;;;;;;-141.84;59.34;21159.50;5034289;28;20219;-67
2023/07/23 01:56:57;;;;;;;4.18;3.78;;;;;;;-141.84;59.10;21155.44;5042923;28;20295;-67
2023/07/23 01:59:25;;;;;;;4.05;3.65;;;;;;;-141.84;59.42;21108.66;5042675;28;20233;-67
2023/07/23 02:01:54;;;;;;;5.93;3.92;;;;;;;-141.84;59.38;21126.97;5041532;28;20708;-66
2023/07/23 02:04:22;;;;;;;6.32;3.90;;;;;;;-141.84;59.71;21173.72;5041503;28;20982;-67
2023/07/23 02:06:51;;;;;;;4.38;3.83;;;;;;;-141.84;59.10;21171.69;5041695;28;20590;-67
2023/07/23 02:09:19;;;;;;;4.88;3.95;;;;;;;-141.84;59.25;21151.34;5042605;28;20300;-66
2023/07/23 02:11:48;;;;;;;4.18;3.78;;;;;;;-141.84;59.28;21161.53;5042716;28;20296;-66
2023/07/23 02:14:18;;;;;;;4.70;4.10;;;;;;;-141.84;59.60;21131.03;5041762;28;20255;-67
2023/07/23 02:16:46;;;;;;;4.13;3.75;;;;;;;-141.84;58.96;21173.72;5034401;28;20733;-66
2023/07/23 02:19:15;;;;;;;4.82;3.90;;;;;;;-141.84;58.66;21122.91;5042078;28;20274;-67
2023/07/23 02:21:43;;;;;;;4.95;3.85;;;;;;;-141.84;58.73;21155.44;5042190;28;20225;-67
2023/07/23 02:24:12;;;;;;;4.30;3.90;;;;;;;-141.84;59.33;21159.50;5042143;28;20284;-67
2023/07/23 02:26:40;;;;;;;4.63;4.03;;;;;;;-141.84;58.21;21137.13;5034531;28;20202;-67
2023/07/23 02:29:09;;;;;;;4.00;3.67;;;;;;;-141.84;59.08;21139.16;5041990;28;20729;-66
2023/07/23 02:31:39;;;;;;;4.22;3.80;;;;;;;-141.84;59.06;21106.63;5022468;28;20230;-66
2023/07/23 02:34:07;;;;;;;4.40;3.83;;;;;;;-141.84;59.03;21104.59;5031088;28;20225;-67
2023/07/23 02:36:36;;;;;;;4.20;3.78;;;;;;;-141.84;58.47;21151.34;5034250;28;20236;-67
2023/07/23 02:39:04;;;;;;;4.28;3.88;;;;;;;-141.84;58.92;21118.84;5042234;28;20697;-67
2023/07/23 02:41:33;;;;;;;3.90;3.50;;;;;;;-141.84;59.08;21131.03;5042005;28;20256;-67
2023/07/23 02:44:02;;;;;;;4.93;3.92;;;;;;;-141.84;59.70;21129.00;5042191;28;20287;-67
2023/07/23 02:46:30;;;;;;;5.70;4.10;;;;;;;-141.84;59.50;21129.00;5034378;28;20715;-67
2023/07/23 02:49:00;;;;;;;4.38;3.75;;;;;;;-141.84;59.62;21114.75;5041752;28;20316;-65
2023/07/23 02:51:28;;;;;;;3.72;3.42;;;;;;;-141.84;59.66;21063.94;5041976;28;20324;-67
2023/07/23 02:53:57;;;;;;;6.35;3.90;;;;;;;-141.84;59.62;21061.91;5044085;28;20267;-68
2023/07/23 02:56:26;;;;;;;5.07;3.80;;;;;;;-141.84;59.56;21086.31;5037904;28;20313;-67
2023/07/23 02:58:54;;;;;;;4.90;4.40;;;;;;;-141.84;60.65;21094.44;5042815;28;20295;-67
2023/07/23 03:01:23;;;;;;;5.28;3.88;;;;;;;-141.84;60.07;21139.16;5043076;28;20266;-66
2023/07/23 03:03:51;;;;;;;3.90;3.60;;;;;;;-141.84;60.49;21112.72;5043005;28;20274;-66
2023/07/23 03:06:21;;;;;;;5.50;4.40;;;;;;;-141.84;60.23;21131.03;5043377;28;20320;-67
2023/07/23 03:08:50;;;;;;;4.35;3.95;;;;;;;-141.84;60.40;21102.56;5042122;28;20221;-67
2023/07/23 03:11:18;;;;;;;4.70;4.20;;;;;;;-141.84;59.15;21106.63;5043145;28;20727;-67
2023/07/23 03:13:47;;;;;;;4.43;4.03;;;;;;;-141.84;59.93;21151.34;5045498;28;20799;-66
2023/07/23 03:16:15;;;;;;;4.10;3.80;;;;;;;-141.84;60.12;21141.19;5046029;28;20316;-66
2023/07/23 03:18:44;;;;;;;7.22;3.90;;;;;;;-141.84;60.95;21092.41;5056281;28;20228;-68
2023/07/23 03:21:12;;;;;;;4.75;4.28;;;;;;;-141.84;61.88;21070.03;5067122;28;20224;-67
2023/07/23 03:23:42;;;;;;;5.00;3.88;;;;;;;-141.84;62.26;21106.63;5066973;28;20243;-67
2023/07/23 03:26:11;;;;;;;5.18;4.25;;;;;;;-141.84;62.82;21092.41;5055376;28;20257;-67
2023/07/23 03:28:40;;;;;;;4.88;4.35;;;;;;;-141.84;63.28;21035.47;5019470;28;20309;-68
2023/07/23 03:31:08;;;;;;;4.70;4.30;;;;;;;-141.84;64.02;21055.81;5042736;28;20283;-67
2023/07/23 03:33:36;;;;;;;4.47;4.07;;;;;;;-141.84;63.68;21007.00;5045859;28;20304;-67
2023/07/23 03:36:10;;;;;;;4.70;4.28;;;;;;;-141.84;63.68;21063.94;5046929;28;20202;-67
2023/07/23 03:38:39;;;;;;;4.35;3.95;;;;;;;-141.84;63.35;21029.38;5039140;28;20253;-68
2023/07/23 03:41:10;;;;;;;4.68;4.28;;;;;;;-141.84;62.95;21082.25;5046159;28;20967;-67
2023/07/23 03:43:38;;;;;;;4.13;3.70;;;;;;;-141.84;64.18;21053.78;5045893;28;20237;-67
2023/07/23 03:46:07;;;;;;;5.22;4.75;;;;;;;-141.84;63.66;21057.84;5046625;28;20309;-66
2023/07/23 03:48:35;;;;;;;4.35;3.90;;;;;;;-141.84;63.75;21035.47;5038614;28;20299;-67
2023/07/23 03:51:04;;;;;;;4.78;4.20;;;;;;;-141.84;63.40;21031.41;5046963;28;20307;-67
2023/07/23 03:53:32;;;;;;;5.00;4.05;;;;;;;-141.84;63.58;21065.97;5046549;28;20316;-67
2023/07/23 03:56:01;;;;;;;5.28;3.88;;;;;;;-141.84;64.71;21019.22;5046437;28;20624;-66
2023/07/23 03:58:31;;;;;;;4.82;4.43;;;;;;;-141.84;65.37;21004.97;5038775;28;20295;-67
2023/07/23 04:00:59;;;;;;;6.10;4.63;;;;;;;-141.84;65.94;21009.03;5045866;28;20237;-67
2023/07/23 04:03:28;;;;;;;5.22;4.68;;;;;;;-141.84;65.40;21025.31;5046132;28;20231;-66
2023/07/23 04:05:57;;;;;;;4.82;4.40;;;;;;;-141.84;65.95;21025.31;5045574;28;20223;-66
2023/07/23 04:08:26;;;;;;;4.95;4.45;;;;;;;-141.84;66.57;21033.44;5039629;28;20233;-69
2023/07/23 04:10:55;;;;;;;5.05;4.38;;;;;;;-141.84;66.82;21035.47;5045641;28;20275;-66
2023/07/23 04:13:24;;;;;;;4.57;4.18;;;;;;;-141.84;68.07;20990.75;5045094;28;20241;-68
2023/07/23 04:15:54;;;;;;;5.78;4.97;;;;;;;-141.84;68.50;20992.78;5044769;28;20256;-68
2023/07/23 04:18:22;;;;;;;5.57;5.03;;;;;;;-141.84;68.78;21013.13;5045064;28;20681;-68
2023/07/23 04:20:51;;;;;;;5.57;5.07;;;;;;;-141.84;69.39;21033.44;5043423;28;20316;-66
2023/07/23 04:23:19;;;;;;;5.32;4.43;;;;;;;-141.84;69.43;21013.13;5045743;28;20324;-68
2023/07/23 04:25:48;;;;;;;5.38;4.85;;;;;;;-141.84;70.15;20978.56;5044814;28;20716;-67
2023/07/23 04:28:16;;;;;;;5.10;4.60;;;;;;;-141.84;70.40;20992.78;5045940;28;20989;-68
2023/07/23 04:30:45;;;;;;;5.85;4.95;;;;;;;-141.84;70.12;21000.91;5039229;28;20320;-67
2023/07/23 04:33:15;;;;;;;6.55;4.80;;;;;;;-141.84;69.46;21002.94;5045385;28;20205;-66
2023/07/23 04:35:43;;;;;;;5.32;4.68;;;;;;;-141.84;69.78;20992.78;5045807;28;20293;-66
2023/07/23 04:38:11;;;;;;;4.45;4.05;;;;;;;-141.84;70.47;20966.34;5045228;28;20271;-68
2023/07/23 04:40:40;;;;;;;6.82;4.63;;;;;;;-141.84;70.18;21033.44;5037711;28;20257;-66
2023/07/23 04:43:08;;;;;;;4.95;4.40;;;;;;;-141.84;70.27;21025.31;5045193;28;20283;-67
2023/07/23 04:45:37;;;;;;;5.75;5.20;;;;;;;-141.84;69.59;21049.72;5044480;28;20297;-67
2023/07/23 04:48:07;;;;;;;4.68;4.20;;;;;;;-141.84;69.61;21047.69;5045166;28;20224;-66
2023/07/23 04:50:37;;;;;;;4.88;4.47;;;;;;;-141.84;69.52;21059.88;5038330;28;20308;-68
2023/07/23 04:53:05;;;;;;;5.57;4.90;;;;;;;-141.84;68.25;21082.25;5045066;28;20336;-67
2023/07/23 04:55:34;;;;;;;5.45;4.95;;;;;;;-141.84;68.17;21082.25;5044895;28;20229;-66
2023/07/23 04:58:03;;;;;;;4.85;4.45;;;;;;;-141.84;68.13;21084.28;5045308;28;20221;-67
2023/07/23 05:00:31;;;;;;;4.90;4.50;;;;;;;-141.84;67.38;21096.47;5037652;28;20770;-67
2023/07/23 05:03:00;;;;;;;5.20;4.72;;;;;;;-141.84;66.26;21106.63;5045461;28;20259;-68
2023/07/23 05:05:28;;;;;;;4.75;4.30;;;;;;;-141.84;66.20;21122.91;5025092;28;20328;-68
2023/07/23 05:07:58;;;;;;;5.25;4.75;;;;;;;-141.84;66.31;21110.69;5034775;28;20756;-69
2023/07/23 05:10:29;;;;;;;4.82;4.43;;;;;;;-141.84;66.32;21114.75;5038063;28;20283;-67
2023/07/23 05:12:58;;;;;;;4.90;4.50;;;;;;;-141.84;65.92;21139.16;5044977;28;20323;-67
2023/07/23 05:15:26;;;;;;;6.13;5.28;;;;;;;-141.84;65.49;21171.69;5043887;28;20212;-67
2023/07/23 05:17:55;;;;;;;8.13;4.68;;;;;;;-141.84;65.89;21179.81;5045583;28;20536;-68
2023/07/23 05:20:23;;;;;;;5.60;4.80;;;;;;;-141.84;65.51;21196.09;5023536;28;20226;-67
2023/07/23 05:22:52;;;;;;;5.20;4.65;;;;;;;-141.84;64.80;21220.47;5041239;28;20707;-68
2023/07/23 05:25:22;;;;;;;5.45;4.95;;;;;;;-141.84;64.71;21204.22;5064544;28;20340;-66
2023/07/23 05:27:51;;;;;;;4.30;3.90;;;;;;;-141.84;64.39;21183.88;5064440;28;20247;-69
2023/07/23 05:30:21;;;;;;;4.85;4.35;;;;;;;-141.84;63.87;21208.28;5063619;28;20300;-68
2023/07/23 05:32:50;;;;;;;4.90;4.25;;;;;;;-141.84;63.46;21232.69;5062023;28;20204;-66
2023/07/23 05:35:19;;;;;;;5.05;4.05;;;;;;;-141.84;63.11;21261.16;5064178;28;20818;-68
2023/07/23 05:37:47;;;;;;;4.78;4.10;;;;;;;-141.84;63.49;21238.78;5064437;28;20319;-66
2023/07/23 05:40:16;;;;;;;4.28;3.90;;;;;;;-141.84;63.08;21271.31;5064116;28;20649;-67
2023/07/23 05:42:46;;;;;;;5.18;4.40;;;;;;;-141.84;62.29;21297.75;5057452;28;20848;-67
2023/07/23 05:45:14;;;;;;;4.28;3.88;;;;;;;-141.84;61.80;21340.44;5064121;28;20220;-68
2023/07/23 05:47:43;;;;;;;4.70;4.30;;;;;;;-141.84;61.10;21401.44;5053511;28;20237;-67
2023/07/23 05:50:11;;;;;;;5.32;4.75;;;;;;;-141.84;59.85;21423.81;5043737;28;20780;-68
2023/07/23 05:52:40;;;;;;;4.78;4.28;;;;;;;-141.84;60.01;21389.22;5038245;28;20891;-68
2023/07/23 05:55:09;;;;;;;4.50;4.10;;;;;;;-141.84;59.90;21370.94;5043959;28;20332;-67
2023/07/23 05:57:37;;;;;;;4.60;4.20;;;;;;;-141.84;59.23;21433.97;5044153;28;20300;-67
2023/07/23 06:00:08;;;;;;;4.55;4.15;;;;;;;-141.84;59.38;21444.13;5043956;28;20237;-68
2023/07/23 06:02:37;;;;;;;4.90;4.40;;;;;;;-141.84;58.99;21470.56;5037731;28;20273;-66
2023/07/23 06:05:06;;;;;;;4.28;3.80;;;;;;;-141.84;56.10;21525.47;5043587;28;20229;-67
2023/07/23 06:07:34;;;;;;;5.32;4.13;;;;;;;-141.84;56.34;21505.13;5042803;28;20249;-67
2023/07/23 06:10:04;;;;;;;4.45;4.05;;;;;;;-141.84;55.80;21547.81;5044375;28;20312;-67
2023/07/23 06:12:33;;;;;;;5.45;4.57;;;;;;;-141.84;55.99;21501.06;5036938;28;20249;-67
2023/07/23 06:15:01;;;;;;;5.00;3.90;;;;;;;-141.84;55.94;21541.72;5043786;28;20216;-67
2023/07/23 06:17:31;;;;;;;6.22;4.40;;;;;;;-141.84;55.44;21535.63;5043491;28;20233;-67
2023/07/23 06:20:00;;;;;;;4.70;4.03;;;;;;;-141.84;54.83;21547.81;5043821;28;20286;-67
2023/07/23 06:22:28;;;;;;;4.70;4.20;;;;;;;-141.84;53.66;21602.72;5041453;28;20319;-67
2023/07/23 06:24:57;;;;;;;4.13;3.72;;;;;;;-141.84;54.46;21578.31;5064188;28;20231;-67
2023/07/23 06:27:25;;;;;;;4.68;4.03;;;;;;;-141.84;55.04;21555.97;5063700;28;20313;-67
2023/07/23 06:29:54;;;;;;;4.78;4.28;;;;;;;-141.84;54.82;21574.25;5064251;28;20246;-66
2023/07/23 06:32:22;;;;;;;4.65;4.20;;;;;;;-141.84;55.13;21568.16;5063354;28;20724;-67
2023/07/23 06:34:52;;;;;;;5.65;4.20;;;;;;;-141.84;53.68;21637.28;5060253;28;20736;-67
2023/07/23 06:37:21;;;;;;;4.47;3.97;;;;;;;-141.84;53.60;21623.06;5063979;28;20430;-66
2023/07/23 06:39:49;;;;;;;4.63;4.05;;;;;;;-141.84;54.13;21627.13;5063587;28;20307;-67
2023/07/23 06:42:18;;;;;;;4.78;4.28;;;;;;;-141.84;54.39;21562.06;5063096;28;20231;-67
2023/07/23 06:44:46;;;;;;;4.45;4.05;;;;;;;-141.84;53.82;21616.97;5056062;28;20230;-67
2023/07/23 06:47:15;;;;;;;4.25;3.85;;;;;;;-141.84;54.73;21616.97;5056069;28;20267;-66
2023/07/23 06:49:43;;;;;;;4.30;3.67;;;;;;;-141.84;54.53;21610.84;5046785;28;20249;-67
2023/07/23 06:52:13;;;;;;;5.85;4.15;;;;;;;-141.84;54.53;21584.44;5046793;28;20219;-66
2023/07/23 06:54:42;;;;;;;4.43;4.03;;;;;;;-141.84;53.56;21586.47;5040894;28;20274;-66
2023/07/23 06:57:11;;;;;;;5.85;4.30;;;;;;;-141.84;52.91;21671.84;5047266;28;20247;-67
2023/07/23 06:59:39;;;;;;;4.00;3.60;;;;;;;-141.84;53.06;21669.81;5048214;28;20209;-67
2023/07/23 07:02:08;;;;;;;4.20;3.80;;;;;;;-141.84;52.03;21761.31;5046988;28;20229;-67
2023/07/23 07:04:37;;;;;;;3.90;3.50;;;;;;;-141.84;51.07;21783.69;5039941;28;20701;-68
2023/07/23 07:07:06;;;;;;;4.47;4.07;;;;;;;-141.84;51.09;21824.34;5047721;28;20320;-67
2023/07/23 07:09:36;;;;;;;4.38;3.97;;;;;;;-141.84;50.52;21964.66;5045371;28;20320;-66
2023/07/23 07:12:05;;;;;;;4.07;3.78;;;;;;;-141.84;49.79;22127.34;5047121;28;20197;-67
2023/07/23 07:14:34;;;;;;;5.30;4.03;;;;;;;-141.84;47.36;22306.31;5039000;28;20256;-68
2023/07/23 07:17:02;;;;;;;4.40;4.00;;;;;;;-141.84;46.27;22330.72;5046247;28;20257;-68
2023/07/23 07:19:34;;;;;;;5.88;3.85;;;;;;;-141.84;45.56;22373.41;5045234;28;20225;-67
2023/07/23 07:22:02;;;;;;;4.30;3.90;;;;;;;-141.84;45.24;22363.25;5047595;28;20754;-67
2023/07/23 07:24:31;;;;;;;3.92;3.63;;;;;;;-141.84;45.99;22300.22;5057336;28;20290;-66
2023/07/23 07:27:01;;;;;;;5.55;3.50;;;;;;;-141.84;46.03;22251.41;5065930;28;20266;-67
2023/07/23 07:29:29;;;;;;;4.25;3.85;;;;;;;-141.84;44.88;22332.75;5064972;28;20328;-68
2023/07/23 07:31:57;;;;;;;5.95;3.75;;;;;;;-141.84;45.33;22300.22;5064582;28;20708;-66
2023/07/23 07:34:26;;;;;;;4.60;4.13;;;;;;;-141.84;45.67;22363.25;5057459;28;20224;-66
2023/07/23 07:36:54;;;;;;;5.65;3.75;;;;;;;-141.84;45.12;22401.88;5064631;28;20658;-67
2023/07/23 07:39:23;;;;;;;4.57;3.70;;;;;;;-141.84;44.90;22471.03;5064998;28;20209;-67
2023/07/23 07:41:53;;;;;;;4.05;3.67;;;;;;;-141.84;44.07;22540.19;5065325;28;20654;-66
2023/07/23 07:44:23;;;;;;;4.38;3.60;;;;;;;-141.84;44.31;22534.09;5064775;28;20612;-67
2023/07/23 07:46:51;;;;;;;4.53;3.45;;;;;;;-141.84;43.84;22564.59;5057593;28;20229;-67
2023/07/23 07:49:20;;;;;;;4.38;3.97;;;;;;;-141.84;42.92;22686.63;5044712;28;20632;-68
2023/07/23 07:51:48;;;;;;;4.20;3.80;;;;;;;-141.84;43.50;22586.97;5044180;28;20800;-67
2023/07/23 07:54:17;;;;;;;4.70;3.70;;;;;;;-141.84;43.06;22609.34;5045047;28;20209;-68
2023/07/23 07:56:46;;;;;;;4.80;3.88;;;;;;;-141.84;43.02;22511.72;5037808;28;20704;-68
2023/07/23 07:59:15;;;;;;;4.45;3.20;;;;;;;-141.84;43.50;22534.09;5043511;28;20233;-69
2023/07/23 08:01:45;;;;;;;4.28;3.58;;;;;;;-141.84;43.70;22517.81;5044678;28;20287;-68
2023/07/23 08:04:14;;;;;;;3.70;3.35;;;;;;;-141.84;43.52;22487.31;5044368;28;20267;-67
2023/07/23 08:06:44;;;;;;;3.90;3.60;;;;;;;-141.84;43.24;22428.31;5036694;28;20488;-66
2023/07/23 08:09:13;;;;;;;3.72;3.42;;;;;;;-141.84;43.82;22444.59;5044203;28;20259;-66
2023/07/23 08:11:42;;;;;;;3.97;3.60;;;;;;;-141.84;44.35;22444.59;5043557;28;20206;-67
2023/07/23 08:14:14;;;;;;;4.78;3.60;;;;;;;-141.84;43.52;22469.00;5043384;28;20666;-66
2023/07/23 08:16:44;;;;;;;3.92;3.55;;;;;;;-141.84;43.94;22515.78;5035665;28;20903;-67
2023/07/23 08:19:14;;;;;;;7.30;4.00;;;;;;;-141.84;43.86;22523.91;5042693;28;20256;-67
2023/07/23 08:21:43;;;;;;;3.70;3.40;;;;;;;-141.84;42.80;22633.75;5043282;28;20296;-65
2023/07/23 08:24:13;;;;;;;3.88;3.58;;;;;;;-141.84;42.25;22676.44;5023786;28;20308;-66
2023/07/23 08:26:43;;;;;;;4.05;3.65;;;;;;;-141.84;42.43;22727.28;5016022;28;20677;-67
2023/07/23 08:29:13;;;;;;;4.05;3.65;;;;;;;-141.84;42.01;22788.31;5024105;28;20712;-66
2023/07/23 08:31:42;;;;;;;3.85;3.50;;;;;;;-141.84;40.84;22928.66;5023961;28;20232;-66
2023/07/23 08:34:12;;;;;;;4.13;3.72;;;;;;;-141.84;41.00;23001.88;5023736;28;21004;-66
2023/07/23 08:36:41;;;;;;;3.97;3.58;;;;;;;-141.84;39.92;23010.00;5018362;28;20271;-65
2023/07/23 08:39:11;;;;;;;4.28;3.30;;;;;;;-141.84;38.19;23176.81;5023734;28;20217;-65
2023/07/23 08:42:14;;;;;;;3.65;3.35;;;;;;;-141.84;36.20;23372.09;5025003;28;20241;-65
2023/07/23 08:45:11;;;;;;;4.68;3.60;;;;;;;-141.84;36.73;23347.69;5020278;28;20667;-66
2023/07/23 08:47:40;;;;;;;3.90;3.50;;;;;;;-141.84;35.79;23465.66;5032637;28;20724;-65
2023/07/23 08:50:12;;;;;;;3.92;3.10;;;;;;;-141.84;35.55;23435.16;5045728;28;20237;-66
2023/07/23 08:52:42;;;;;;;4.05;3.15;;;;;;;-141.84;36.21;23449.38;5034999;28;20648;-66
2023/07/23 08:55:11;;;;;;;4.55;3.22;;;;;;;-141.84;35.09;23524.66;5044059;28;20233;-67
2023/07/23 08:57:40;;;;;;;4.25;3.22;;;;;;;-141.84;35.32;23577.56;5043274;28;20229;-66
2023/07/23 09:00:10;;;;;;;4.20;3.10;;;;;;;-141.84;34.69;23709.78;5043691;28;20289;-65
2023/07/23 09:02:41;;;;;;;4.50;3.28;;;;;;;-141.84;34.22;23754.53;5035009;28;20205;-65
2023/07/23 09:05:11;;;;;;;3.70;3.40;;;;;;;-141.84;34.39;23746.41;5043720;28;20264;-66
2023/07/23 09:07:40;;;;;;;4.15;3.42;;;;;;;-141.84;33.93;23715.88;5042950;28;20237;-67
2023/07/23 09:10:09;;;;;;;4.13;3.20;;;;;;;-141.84;34.20;23748.44;5043537;28;20245;-67
2023/07/23 09:12:42;;;;;;;4.53;3.30;;;;;;;-141.84;33.85;23752.50;5035527;28;20232;-65
2023/07/23 09:15:13;;;;;;;3.72;3.40;;;;;;;-141.84;33.73;23795.22;5041968;28;20244;-68
2023/07/23 09:17:41;;;;;;;7.10;4.32;;;;;;;-141.84;33.17;23774.88;5038160;28;20248;-66
2023/07/23 09:20:12;;;;;;;4.25;3.72;;;;;;;-141.84;33.31;23740.31;5041598;28;20324;-67
2023/07/23 09:22:41;;;;;;;6.18;4.93;;;;;;;-141.84;33.91;23752.50;5042399;28;20224;-66
2023/07/23 09:25:09;;;;;;;3.58;3.20;;;;;;;-141.84;33.66;23569.41;5062832;28;20264;-66
2023/07/23 09:27:39;;;;;;;4.75;4.03;;;;;;;-141.84;34.11;23506.34;5062678;28;20260;-67
2023/07/23 09:30:08;;;;;;;7.30;5.78;;;;;;;-141.84;34.22;23433.13;5063269;28;20209;-66
2023/07/23 09:32:37;;;;;;;4.55;3.97;;;;;;;-141.84;34.56;23412.78;5054532;28;20303;-65
2023/07/23 09:35:06;;;;;;;3.58;3.28;;;;;;;-141.84;34.73;23339.53;5062570;28;20236;-67
2023/07/23 09:37:37;;;;;;;4.15;3.75;;;;;;;-141.84;35.25;23270.38;5054221;28;20228;-66
2023/07/23 09:40:06;;;;;;;5.03;3.78;;;;;;;-141.84;35.06;23370.06;5030814;28;20658;-66
2023/07/23 09:42:39;;;;;;;4.68;4.25;;;;;;;-141.84;35.88;23333.44;5038694;28;20225;-67
2023/07/23 09:45:09;;;;;;;3.97;3.55;;;;;;;-141.84;34.80;23353.78;5045330;28;20312;-66
2023/07/23 09:47:38;;;;;;;3.28;2.97;;;;;;;-141.84;35.06;23319.19;5032447;28;20230;-66
2023/07/23 09:50:10;;;;;;;3.55;2.78;;;;;;;-141.84;35.43;23361.91;5033226;28;20233;-61
2023/07/23 09:52:40;;;;;;;3.53;3.22;;;;;;;-141.84;35.06;23376.16;5041408;28;20597;-65
2023/07/23 09:55:10;;;;;;;4.55;3.60;;;;;;;-141.84;34.79;23372.09;5045770;28;20701;-70
2023/07/23 09:57:40;;;;;;;4.68;3.10;;;;;;;-141.84;34.68;23404.63;5044545;28;20229;-69
2023/07/23 10:00:10;;;;;;;3.55;3.25;;;;;;;-141.84;35.62;23392.44;5047391;28;20243;-68
2023/07/23 10:02:41;;;;;;;3.88;3.45;;;;;;;-141.84;34.73;23400.56;5036240;28;20308;-67
2023/07/23 10:05:13;;;;;;;4.25;3.63;;;;;;;-141.84;34.74;23518.56;5041224;28;20228;-66
2023/07/23 10:07:44;;;;;;;3.50;3.17;;;;;;;-141.84;34.32;23520.59;5046590;28;20252;-69
2023/07/23 10:10:14;;;;;;;3.33;3.03;;;;;;;-141.84;34.28;23536.88;5049666;28;20220;-68
2023/07/23 10:12:43;;;;;;;5.10;3.00;;;;;;;-141.84;33.61;23573.47;5033493;28;20655;-64
2023/07/23 10:15:12;;;;;;;2.95;2.75;;;;;;;-141.84;33.54;23620.28;5042204;28;20743;-66
2023/07/23 10:17:42;;;;;;;3.25;2.40;;;;;;;-141.84;32.95;23630.44;5047966;28;20783;-66
2023/07/23 10:20:14;;;;;;;4.53;2.88;;;;;;;-141.84;32.81;23652.81;5041693;28;20283;-67
2023/07/23 10:22:46;;;;;;;4.32;3.25;;;;;;;-141.84;33.31;23569.41;5037774;28;20316;-70
2023/07/23 10:25:25;;;;;;;3.13;2.65;;;;;;;-141.84;33.20;23569.41;5043493;28;20239;-68
2023/07/23 10:27:59;;;;;;;4.45;2.50;;;;;;;-141.84;33.55;23522.63;5039262;28;20727;-64
2023/07/23 10:30:28;;;;;;;4.85;4.20;;;;;;;-141.84;32.92;23520.59;5035214;28;20209;-63
2023/07/23 10:33:28;;;;;;;5.10;3.20;;;;;;;-141.84;32.57;23571.44;5045610;28;20708;-64
2023/07/23 10:36:04;;;;;;;2.85;2.60;;;;;;;-141.84;33.10;23610.09;5041736;28;20637;-62
2023/07/23 10:38:35;;;;;;;3.78;2.72;;;;;;;-141.84;33.18;23703.69;5028510;28;20225;-70
2023/07/23 10:41:05;;;;;;;3.20;2.90;;;;;;;-141.84;32.97;23888.81;5045617;28;20236;-65
2023/07/23 10:43:44;;;;;;;3.60;2.90;;;;;;;-141.84;33.03;24047.50;5046914;28;20315;-65
2023/07/23 10:46:14;;;;;;;3.38;2.80;;;;;;;-141.84;32.38;24035.31;5036701;28;20448;-65
2023/07/23 10:48:47;;;;;;;3.17;2.83;;;;;;;-141.84;32.74;23986.47;5041228;28;20204;-63
2023/07/23 10:51:19;;;;;;;3.00;2.67;;;;;;;-141.84;32.95;23966.13;5042678;28;20231;-64
2023/07/23 10:53:56;;;;;;;5.15;2.88;;;;;;;-141.84;32.99;23992.56;5042590;28;20633;-66
2023/07/23 10:56:29;;;;;;;3.88;3.00;;;;;;;-141.84;32.64;24041.41;5040385;28;20289;-68
2023/07/23 10:59:03;;;;;;;3.58;2.72;;;;;;;-141.84;32.70;24039.38;5046426;28;20634;-65
2023/07/23 11:01:35;;;;;;;5.70;3.00;;;;;;;-141.84;32.60;23988.50;5045982;28;20244;-69
2023/07/23 11:04:09;;;;;;;4.72;2.90;;;;;;;-141.84;32.50;23978.34;5041669;28;20229;-68
2023/07/23 11:06:41;;;;;;;3.80;3.00;;;;;;;-141.84;32.99;23968.16;5038214;28;20328;-67
2023/07/23 11:09:12;;;;;;;5.32;2.88;;;;;;;-141.84;32.16;24067.84;5044478;28;20217;-69
2023/07/23 11:11:42;;;;;;;4.15;2.67;;;;;;;-141.84;32.49;23868.47;5045709;28;20274;-69
2023/07/23 11:14:21;;;;;;;6.97;2.65;;;;;;;-141.84;32.48;23927.47;5046162;28;20284;-67
2023/07/23 11:16:51;;;;;;;3.65;2.72;;;;;;;-141.84;32.50;23970.19;5046837;28;20228;-66
2023/07/23 11:19:20;;;;;;;3.05;2.38;;;;;;;-141.84;32.73;24047.50;5041873;28;20328;-67
2023/07/23 11:21:51;;;;;;;2.85;2.65;;;;;;;-141.84;32.48;24128.88;5049767;28;20327;-67
2023/07/23 11:24:21;;;;;;;3.13;2.58;;;;;;;-141.84;31.40;24069.88;5036460;28;20309;-67
2023/07/23 11:26:50;;;;;;;3.70;2.80;;;;;;;-141.84;31.88;23949.84;5041110;28;20653;-66
2023/07/23 11:29:19;;;;;;;3.35;3.00;;;;;;;-141.84;32.21;24116.69;5046005;28;20221;-63